Time;durP1;ratioP1;P1;durP2;ratioP2;P2;SDS_P1;SDS_P2;PMS_P1;PMS_P2;Temp;Humidity;BMP_temperature;BMP_pressure;BME280_temperature;BME280_humidity;BME280_pressure;Samples;Min_cycle;Max_cycle;Signal;HPM_P1;HPM_P2
2023/06/22 00:01:54;;;;;;;19.50;16.15;;;19.20;99.90;;;;;;4984122;28;20093;-51
2023/06/22 00:04:20;;;;;;;18.35;15.20;;;19.20;99.90;;;;;;4985069;28;20049;-58
2023/06/22 00:06:46;;;;;;;20.08;16.88;;;19.20;99.90;;;;;;4985411;28;20085;-56
2023/06/22 00:09:11;;;;;;;17.33;15.15;;;19.10;99.90;;;;;;4984128;28;20122;-57
2023/06/22 00:11:37;;;;;;;19.27;15.80;;;19.10;99.90;;;;;;4984028;28;20058;-56
2023/06/22 00:14:03;;;;;;;18.13;15.20;;;19.10;99.90;;;;;;4984696;28;20054;-53
2023/06/22 00:16:31;;;;;;;18.65;14.98;;;19.10;99.90;;;;;;4983978;28;20038;-52
2023/06/22 00:19:00;;;;;;;16.15;14.25;;;19.10;99.90;;;;;;4984503;28;20436;-51
2023/06/22 00:21:28;;;;;;;17.63;15.48;;;19.10;99.90;;;;;;4983565;28;20300;-52
2023/06/22 00:23:54;;;;;;;19.42;15.60;;;19.10;99.90;;;;;;4985216;28;20500;-56
2023/06/22 00:26:20;;;;;;;17.38;15.57;;;19.00;99.90;;;;;;4975521;28;20305;-56
2023/06/22 00:28:46;;;;;;;18.73;15.98;;;19.00;99.90;;;;;;4967328;28;20057;-55
2023/06/22 00:31:12;;;;;;;18.98;15.98;;;19.00;99.90;;;;;;4965356;28;20035;-52
2023/06/22 00:33:37;;;;;;;23.33;18.20;;;18.90;99.90;;;;;;4965243;28;20090;-56
2023/06/22 00:36:04;;;;;;;25.20;20.27;;;18.90;99.90;;;;;;4964679;28;20050;-51
2023/06/22 00:38:29;;;;;;;23.13;19.92;;;18.80;99.90;;;;;;4965799;28;20097;-57
2023/06/22 00:40:55;;;;;;;25.45;19.80;;;18.80;99.90;;;;;;4964984;28;20054;-53
2023/06/22 00:43:20;;;;;;;26.15;22.08;;;18.70;99.90;;;;;;4963621;28;20085;-56
2023/06/22 00:45:47;;;;;;;28.80;23.33;;;18.60;99.90;;;;;;4964780;28;20051;-57
2023/06/22 00:48:14;;;;;;;24.38;21.77;;;18.50;99.90;;;;;;4965374;28;20418;-57
2023/06/22 00:50:40;;;;;;;25.85;20.98;;;18.50;99.90;;;;;;4965299;28;20042;-51
2023/06/22 00:53:11;;;;;;;25.27;22.02;;;18.50;99.90;;;;;;4964479;28;20513;-49
2023/06/22 00:55:38;;;;;;;27.33;22.98;;;18.50;99.90;;;;;;4965139;28;20137;-53
2023/06/22 00:58:10;;;;;;;27.55;23.58;;;18.40;99.90;;;;;;4964019;28;20126;-48
2023/06/22 01:00:36;;;;;;;24.95;21.98;;;18.40;99.90;;;;;;4964669;28;20047;-57
2023/06/22 01:03:02;;;;;;;25.05;22.30;;;18.40;99.90;;;;;;4965228;28;20043;-55
2023/06/22 01:05:30;;;;;;;26.17;22.38;;;18.40;99.90;;;;;;5044831;23;20453;-53
2023/06/22 01:08:08;;;;;;;29.98;23.60;;;18.40;99.90;;;;;;4986248;28;20074;-50
2023/06/22 01:10:45;;;;;;;29.23;23.75;;;18.40;99.90;;;;;;4981356;28;20078;-57
2023/06/22 01:13:39;;;;;;;27.55;24.60;;;18.40;99.90;;;;;;4964178;28;20486;-57
2023/06/22 01:16:15;;;;;;;29.25;26.08;;;18.30;99.90;;;;;;4964812;28;20503;-53
2023/06/22 01:18:43;;;;;;;28.90;25.83;;;18.30;99.90;;;;;;4965180;28;20085;-51
2023/06/22 01:21:12;;;;;;;28.90;25.08;;;18.30;99.90;;;;;;4963392;28;20284;-50
2023/06/22 01:23:56;;;;;;;25.60;22.13;;;18.30;99.90;;;;;;4975635;28;20688;-52
2023/06/22 01:26:40;;;;;;;28.83;25.73;;;18.20;99.90;;;;;;4984127;28;20100;-56
2023/06/22 01:29:08;;;;;;;34.95;30.73;;;18.20;99.90;;;;;;4981865;28;20046;-49
2023/06/22 01:31:35;;;;;;;32.63;27.70;;;18.10;99.90;;;;;;4984044;28;20548;-56
2023/06/22 01:34:04;;;;;;;28.30;25.20;;;18.10;99.90;;;;;;4970781;28;20077;-53
2023/06/22 01:36:32;;;;;;;26.25;22.90;;;18.10;99.90;;;;;;4963835;28;20089;-49
2023/06/22 01:38:58;;;;;;;26.35;22.70;;;18.10;99.90;;;;;;4964618;28;20051;-55
2023/06/22 01:41:29;;;;;;;25.80;23.00;;;18.00;99.90;;;;;;4964078;28;20764;-56
2023/06/22 01:43:56;;;;;;;28.05;22.27;;;18.10;99.90;;;;;;4963063;28;20043;-57
2023/06/22 01:46:23;;;;;;;28.65;22.90;;;18.00;99.90;;;;;;4964049;28;20141;-57
2023/06/22 01:48:49;;;;;;;32.78;25.02;;;18.00;99.90;;;;;;4964033;28;20082;-54
2023/06/22 01:51:15;;;;;;;25.88;23.05;;;18.00;99.90;;;;;;4963848;28;20047;-53
2023/06/22 01:53:41;;;;;;;26.15;23.27;;;18.00;99.90;;;;;;4964126;28;20049;-50
2023/06/22 01:56:06;;;;;;;26.55;22.80;;;18.00;99.90;;;;;;4964167;28;20035;-52
2023/06/22 01:58:33;;;;;;;27.58;23.42;;;18.00;99.90;;;;;;4963453;28;20076;-50
2023/06/22 02:01:10;;;;;;;31.75;28.33;;;18.00;99.90;;;;;;4963293;28;20089;-50
2023/06/22 02:03:44;;;;;;;31.98;27.20;;;18.00;99.90;;;;;;4969851;28;20046;-54
2023/06/22 02:06:20;;;;;;;29.58;26.25;;;18.00;99.90;;;;;;4982110;28;20080;-55
2023/06/22 02:08:53;;;;;;;29.98;26.73;;;18.00;99.90;;;;;;4983267;28;20414;-52
2023/06/22 02:11:20;;;;;;;31.08;25.98;;;17.90;99.90;;;;;;4983255;28;20136;-54
2023/06/22 02:13:46;;;;;;;31.50;27.02;;;17.90;99.90;;;;;;4980456;28;20050;-53
2023/06/22 02:16:14;;;;;;;32.15;26.60;;;17.90;99.90;;;;;;4983026;28;20112;-57
2023/06/22 02:18:46;;;;;;;30.73;25.23;;;17.90;99.90;;;;;;4981701;28;20065;-57
2023/06/22 02:21:12;;;;;;;29.88;25.10;;;17.80;99.90;;;;;;4982462;28;20517;-51
2023/06/22 02:23:37;;;;;;;31.65;27.25;;;17.80;99.90;;;;;;4982536;28;20117;-53
2023/06/22 02:26:03;;;;;;;30.35;26.75;;;17.80;99.90;;;;;;4972308;28;20057;-52
2023/06/22 02:28:29;;;;;;;31.52;27.55;;;17.80;99.90;;;;;;4973171;28;20769;-53
2023/06/22 02:30:55;;;;;;;32.10;26.85;;;17.80;99.90;;;;;;4982798;28;20073;-56
2023/06/22 02:33:21;;;;;;;34.28;26.83;;;17.70;99.90;;;;;;4982843;28;20065;-52
2023/06/22 02:35:48;;;;;;;31.02;27.05;;;17.70;99.90;;;;;;4982096;28;20034;-54
2023/06/22 02:38:14;;;;;;;30.00;26.73;;;17.70;99.90;;;;;;4981622;28;20485;-57
2023/06/22 02:40:40;;;;;;;31.08;26.38;;;17.60;99.90;;;;;;4982138;28;20137;-47
2023/06/22 02:43:05;;;;;;;30.15;25.10;;;17.60;99.90;;;;;;4981900;28;20051;-51
2023/06/22 02:45:31;;;;;;;31.88;26.65;;;17.60;99.90;;;;;;4980079;28;20384;-57
2023/06/22 02:47:57;;;;;;;32.30;26.15;;;17.70;99.90;;;;;;4982407;28;20049;-55
2023/06/22 02:50:23;;;;;;;30.95;26.05;;;17.70;99.90;;;;;;4981017;28;20047;-57
2023/06/22 02:52:48;;;;;;;34.45;27.73;;;17.70;99.90;;;;;;4981820;28;20034;-55
2023/06/22 02:55:14;;;;;;;31.15;25.58;;;17.70;99.90;;;;;;4981884;28;20042;-54
2023/06/22 02:57:43;;;;;;;33.95;28.23;;;17.60;99.90;;;;;;4982220;28;20108;-57
2023/06/22 03:00:17;;;;;;;34.55;29.02;;;17.60;99.90;;;;;;4982385;28;20056;-53
2023/06/22 03:02:47;;;;;;;40.38;35.75;;;17.60;99.90;;;;;;4981749;28;20042;-57
2023/06/22 03:05:15;;;;;;;41.03;35.13;;;17.60;99.90;;;;;;4981521;28;20046;-57
2023/06/22 03:07:44;;;;;;;43.03;36.08;;;17.60;99.90;;;;;;4982722;28;20042;-54
2023/06/22 03:10:11;;;;;;;46.35;37.80;;;17.70;99.90;;;;;;4981793;28;20031;-49
2023/06/22 03:12:41;;;;;;;42.25;36.75;;;17.70;99.90;;;;;;4979343;28;20312;-52
2023/06/22 03:15:08;;;;;;;43.50;37.55;;;17.70;99.90;;;;;;4981348;28;20377;-56
2023/06/22 03:17:35;;;;;;;43.10;36.22;;;17.60;99.90;;;;;;4980600;28;20077;-57
2023/06/22 03:20:08;;;;;;;41.72;37.08;;;17.60;99.90;;;;;;4981651;28;20382;-57
2023/06/22 03:22:34;;;;;;;42.70;36.60;;;17.50;99.90;;;;;;4982035;28;20046;-52
2023/06/22 03:25:00;;;;;;;46.03;39.47;;;17.60;99.90;;;;;;4979651;28;20077;-46
2023/06/22 03:27:25;;;;;;;44.10;38.75;;;17.60;99.90;;;;;;4981101;28;20039;-52
2023/06/22 03:29:51;;;;;;;45.60;40.63;;;17.60;99.90;;;;;;4981876;28;20120;-52
2023/06/22 03:32:17;;;;;;;48.30;41.45;;;17.60;99.90;;;;;;4979961;28;20536;-50
2023/06/22 03:34:46;;;;;;;45.53;39.65;;;17.60;99.90;;;;;;4981011;28;20044;-54
2023/06/22 03:37:14;;;;;;;44.80;39.58;;;17.60;99.90;;;;;;4982109;28;20076;-56
2023/06/22 03:39:40;;;;;;;45.45;39.67;;;17.60;99.90;;;;;;4981290;28;20070;-57
2023/06/22 03:42:06;;;;;;;48.30;39.33;;;17.70;99.90;;;;;;4981060;28;20362;-51
2023/06/22 03:44:32;;;;;;;43.05;38.40;;;17.60;99.90;;;;;;4979993;28;20409;-57
2023/06/22 03:46:57;;;;;;;52.95;40.88;;;17.60;99.90;;;;;;4981390;28;20131;-57
2023/06/22 03:49:23;;;;;;;47.80;40.35;;;17.70;99.90;;;;;;4980909;28;20050;-56
2023/06/22 03:51:48;;;;;;;50.60;39.90;;;17.70;99.90;;;;;;4981760;28;20050;-57
2023/06/22 03:54:14;;;;;;;44.10;38.10;;;17.60;99.90;;;;;;4981469;28;20465;-52
2023/06/22 03:56:39;;;;;;;46.92;40.15;;;17.70;99.90;;;;;;4980311;28;20046;-54
2023/06/22 03:59:05;;;;;;;44.88;38.92;;;17.70;99.90;;;;;;4981213;28;20042;-52
2023/06/22 04:01:31;;;;;;;48.35;40.33;;;17.80;99.90;;;;;;4981582;28;20054;-51
2023/06/22 04:03:56;;;;;;;45.47;38.50;;;17.80;99.90;;;;;;4981336;28;20413;-52
2023/06/22 04:06:22;;;;;;;46.72;38.92;;;17.90;99.90;;;;;;4979951;28;20062;-54
2023/06/22 04:08:50;;;;;;;45.22;39.05;;;17.90;99.90;;;;;;4981424;28;20051;-50
2023/06/22 04:11:18;;;;;;;49.42;41.60;;;18.00;99.90;;;;;;4980613;28;20388;-50
2023/06/22 04:13:44;;;;;;;49.05;40.85;;;18.00;99.90;;;;;;4980838;28;20049;-51
2023/06/22 04:16:09;;;;;;;51.08;41.97;;;18.10;99.90;;;;;;4981000;28;20452;-54
2023/06/22 04:18:35;;;;;;;47.50;40.50;;;18.10;99.90;;;;;;4981257;28;20417;-54
2023/06/22 04:21:02;;;;;;;53.58;41.28;;;18.20;99.90;;;;;;4981488;28;20318;-54
2023/06/22 04:23:28;;;;;;;49.30;41.58;;;18.10;99.90;;;;;;4980507;28;20128;-51
2023/06/22 04:25:53;;;;;;;47.65;41.55;;;18.10;99.90;;;;;;4980864;28;20089;-56
2023/06/22 04:28:19;;;;;;;50.25;40.67;;;18.20;99.90;;;;;;4980423;28;20081;-57
2023/06/22 04:30:47;;;;;;;48.00;40.28;;;18.20;99.90;;;;;;4980914;28;20046;-56
2023/06/22 04:33:16;;;;;;;49.33;41.00;;;18.20;99.90;;;;;;4981463;28;20117;-57
2023/06/22 04:35:44;;;;;;;47.97;40.78;;;18.10;99.90;;;;;;4979933;28;20062;-52
2023/06/22 04:38:13;;;;;;;50.92;41.60;;;18.10;99.90;;;;;;4980379;28;20042;-53
2023/06/22 04:40:39;;;;;;;46.10;39.50;;;18.20;99.90;;;;;;4981031;28;20155;-52
2023/06/22 04:43:06;;;;;;;51.20;39.17;;;18.20;99.90;;;;;;4980133;28;20533;-56
2023/06/22 04:45:32;;;;;;;46.67;38.33;;;18.20;99.90;;;;;;4980202;28;20070;-54
2023/06/22 04:47:58;;;;;;;43.67;38.83;;;18.20;99.90;;;;;;4984550;28;20439;-57
2023/06/22 04:50:24;;;;;;;42.33;37.30;;;18.30;99.90;;;;;;4984965;28;20054;-57
2023/06/22 04:52:50;;;;;;;41.47;35.72;;;18.40;99.90;;;;;;4984521;28;20042;-55
2023/06/22 04:55:18;;;;;;;39.17;35.05;;;18.40;99.90;;;;;;4984244;28;20069;-57
2023/06/22 04:57:48;;;;;;;39.88;34.20;;;18.70;99.90;;;;;;4984384;28;20444;-55
2023/06/22 05:00:17;;;;;;;38.78;33.15;;;19.00;99.90;;;;;;4984731;28;20042;-50
2023/06/22 05:02:45;;;;;;;34.60;30.17;;;19.10;99.90;;;;;;4983726;28;20327;-45
2023/06/22 05:05:13;;;;;;;33.10;29.70;;;19.20;99.90;;;;;;4983746;28;20157;-54
2023/06/22 05:07:48;;;;;;;33.75;30.25;;;19.10;99.90;;;;;;4984142;28;20059;-56
2023/06/22 05:10:14;;;;;;;33.75;30.08;;;19.10;99.90;;;;;;4983896;28;20046;-51
2023/06/22 05:12:41;;;;;;;31.90;28.52;;;19.20;99.90;;;;;;4983779;28;20426;-50
2023/06/22 05:15:10;;;;;;;31.77;27.60;;;19.30;99.90;;;;;;4983660;28;20034;-52
2023/06/22 05:17:36;;;;;;;31.08;27.38;;;19.40;99.90;;;;;;4983331;28;20046;-55
2023/06/22 05:20:06;;;;;;;30.92;27.00;;;19.50;99.90;;;;;;4982616;28;20505;-56
2023/06/22 05:22:31;;;;;;;28.67;25.58;;;19.60;99.90;;;;;;4983645;28;20050;-53
2023/06/22 05:24:57;;;;;;;29.52;26.30;;;19.80;99.90;;;;;;4981462;28;20378;-54
2023/06/22 05:27:23;;;;;;;33.78;26.60;;;20.00;99.90;;;;;;4982877;28;20125;-50
2023/06/22 05:29:48;;;;;;;27.83;24.90;;;20.20;99.90;;;;;;4983168;28;20046;-55
2023/06/22 05:32:14;;;;;;;25.77;23.13;;;20.30;99.90;;;;;;4983520;28;20126;-50
2023/06/22 05:34:39;;;;;;;25.77;23.17;;;20.60;99.90;;;;;;4983308;28;20230;-51
2023/06/22 05:37:06;;;;;;;25.73;23.13;;;20.80;99.90;;;;;;4983475;28;20043;-50
2023/06/22 05:39:32;;;;;;;26.35;23.02;;;21.10;99.90;;;;;;4983280;28;20046;-50
2023/06/22 05:41:57;;;;;;;25.23;22.45;;;21.30;99.90;;;;;;4982657;28;20142;-51
2023/06/22 05:44:23;;;;;;;25.88;20.92;;;21.60;99.90;;;;;;4983237;28;20528;-51
2023/06/22 05:46:48;;;;;;;24.42;19.70;;;21.70;99.90;;;;;;4983901;28;20046;-52
2023/06/22 05:49:14;;;;;;;22.63;20.17;;;21.70;99.90;;;;;;4983021;28;20042;-46
2023/06/22 05:51:41;;;;;;;22.85;20.55;;;21.50;99.90;;;;;;4983821;28;20042;-50
2023/06/22 05:54:07;;;;;;;23.65;20.00;;;21.10;99.90;;;;;;4983153;28;20075;-50
2023/06/22 05:56:33;;;;;;;22.55;19.50;;;20.60;99.90;;;;;;4982556;28;20038;-46
2023/06/22 05:58:59;;;;;;;22.27;19.88;;;20.60;99.90;;;;;;4980216;28;20449;-52
2023/06/22 06:01:25;;;;;;;21.40;19.23;;;20.70;99.90;;;;;;4981949;28;20049;-53
2023/06/22 06:03:52;;;;;;;21.90;19.70;;;20.90;99.90;;;;;;4983285;28;20076;-57
2023/06/22 06:06:21;;;;;;;22.33;18.55;;;21.20;99.90;;;;;;4982279;28;20058;-57
2023/06/22 06:08:46;;;;;;;20.90;18.67;;;21.40;99.90;;;;;;4982751;28;20496;-57
2023/06/22 06:11:12;;;;;;;20.15;18.08;;;21.70;99.90;;;;;;4982454;28;20046;-54
2023/06/22 06:13:37;;;;;;;21.83;18.27;;;22.20;99.90;;;;;;4983310;28;20064;-57
2023/06/22 06:16:03;;;;;;;20.23;18.02;;;22.50;99.90;;;;;;4982297;28;20034;-56
2023/06/22 06:18:29;;;;;;;21.73;17.45;;;22.80;99.90;;;;;;4982856;28;20449;-52
2023/06/22 06:20:55;;;;;;;19.42;17.33;;;23.20;99.90;;;;;;4982596;28;20085;-56
2023/06/22 06:23:20;;;;;;;19.88;17.63;;;23.40;99.90;;;;;;4982407;28;20066;-55
2023/06/22 06:25:46;;;;;;;18.50;16.55;;;23.50;99.90;;;;;;4982192;28;20042;-56
2023/06/22 06:28:12;;;;;;;18.35;16.38;;;23.20;99.90;;;;;;4971824;28;20043;-51
2023/06/22 06:30:37;;;;;;;20.88;18.02;;;23.00;99.90;;;;;;4973050;28;20046;-57
2023/06/22 06:33:08;;;;;;;19.55;17.55;;;22.70;99.90;;;;;;4981253;28;20161;-56
2023/06/22 06:35:34;;;;;;;18.30;16.42;;;22.50;99.90;;;;;;4981355;28;20125;-48
2023/06/22 06:37:59;;;;;;;18.00;16.17;;;22.50;99.90;;;;;;4980432;28;20141;-49
2023/06/22 06:40:25;;;;;;;18.80;16.02;;;22.50;99.90;;;;;;4981037;28;20042;-49
2023/06/22 06:42:50;;;;;;;17.08;15.27;;;22.60;99.90;;;;;;4981448;28;20497;-52
2023/06/22 06:45:24;;;;;;;17.30;15.45;;;22.90;99.90;;;;;;4981438;28;20058;-51
2023/06/22 06:47:51;;;;;;;18.40;16.50;;;23.10;99.90;;;;;;4981317;28;20180;-57
2023/06/22 06:50:17;;;;;;;18.02;15.40;;;23.20;99.90;;;;;;4981540;28;20073;-57
2023/06/22 06:52:43;;;;;;;16.77;15.00;;;23.30;99.90;;;;;;4981450;28;20516;-56
2023/06/22 06:55:12;;;;;;;15.43;13.82;;;23.70;99.90;;;;;;4981830;28;20046;-53
2023/06/22 06:57:39;;;;;;;17.13;14.57;;;23.80;99.90;;;;;;4981471;28;20121;-51
2023/06/22 07:00:11;;;;;;;17.48;14.68;;;24.10;99.90;;;;;;4981488;28;20046;-46
2023/06/22 07:02:41;;;;;;;16.13;14.50;;;24.10;99.90;;;;;;4981285;28;20382;-53
2023/06/22 07:05:07;;;;;;;15.95;14.32;;;24.30;99.90;;;;;;4981239;28;20054;-53
2023/06/22 07:07:34;;;;;;;18.02;14.10;;;24.20;99.90;;;;;;4981206;28;20042;-50
2023/06/22 07:10:00;;;;;;;14.68;13.07;;;24.20;99.90;;;;;;4981874;28;20034;-51
2023/06/22 07:12:25;;;;;;;16.40;13.80;;;24.10;99.90;;;;;;4971104;28;20531;-47
2023/06/22 07:14:52;;;;;;;17.55;13.75;;;24.30;99.90;;;;;;4965708;28;20343;-52
2023/06/22 07:17:18;;;;;;;14.57;13.07;;;24.60;99.90;;;;;;4967667;28;20391;-52
2023/06/22 07:19:43;;;;;;;14.93;13.35;;;24.80;99.90;;;;;;4968358;28;20058;-53
2023/06/22 07:22:09;;;;;;;14.95;12.85;;;24.80;99.90;;;;;;4971778;28;20512;-51
2023/06/22 07:24:34;;;;;;;13.00;11.63;;;24.80;99.90;;;;;;4968580;28;20472;-53
2023/06/22 07:27:02;;;;;;;14.23;12.73;;;24.70;99.90;;;;;;4971041;28;20042;-50
2023/06/22 07:29:27;;;;;;;12.68;11.38;;;24.70;99.90;;;;;;4969757;28;20042;-52
2023/06/22 07:31:54;;;;;;;13.48;11.60;;;24.80;99.90;;;;;;4965516;28;20564;-57
2023/06/22 07:34:19;;;;;;;13.57;12.05;;;24.90;99.90;;;;;;4960794;28;20050;-53
2023/06/22 07:36:46;;;;;;;12.77;11.43;;;24.90;99.80;;;;;;4960233;28;20062;-57
2023/06/22 07:39:12;;;;;;;13.63;12.02;;;24.90;99.80;;;;;;4962668;28;20054;-56
2023/06/22 07:41:40;;;;;;;14.35;12.02;;;24.90;99.50;;;;;;4961342;28;20051;-57
2023/06/22 07:44:06;;;;;;;13.50;11.23;;;24.90;99.10;;;;;;4961743;28;20046;-55
2023/06/22 07:46:32;;;;;;;13.27;11.65;;;25.00;99.40;;;;;;4961778;28;20058;-53
2023/06/22 07:48:58;;;;;;;13.88;11.43;;;25.20;99.40;;;;;;4962200;28;20043;-48
2023/06/22 07:51:24;;;;;;;13.18;11.75;;;25.30;99.30;;;;;;4962349;28;20051;-53
2023/06/22 07:53:49;;;;;;;14.15;11.02;;;25.20;99.30;;;;;;4961554;28;20080;-48
2023/06/22 07:56:18;;;;;;;12.25;10.90;;;25.40;99.30;;;;;;4961633;28;20070;-53
2023/06/22 07:58:45;;;;;;;9.85;8.13;;;25.50;98.90;;;;;;4962155;28;20114;-50
2023/06/22 08:01:11;;;;;;;11.25;9.57;;;25.60;98.50;;;;;;4961231;28;20055;-44
2023/06/22 08:03:37;;;;;;;12.93;9.48;;;25.60;98.20;;;;;;4963378;28;20109;-53
2023/06/22 08:06:03;;;;;;;10.85;9.75;;;25.50;98.20;;;;;;4980905;28;20054;-55
2023/06/22 08:08:29;;;;;;;12.07;9.95;;;25.40;98.40;;;;;;4981111;28;20035;-50
2023/06/22 08:10:54;;;;;;;11.68;9.80;;;25.40;98.30;;;;;;4979999;28;20315;-57
2023/06/22 08:13:20;;;;;;;10.68;8.38;;;25.20;98.70;;;;;;4981190;28;20133;-54
2023/06/22 08:15:46;;;;;;;10.00;8.68;;;25.20;98.40;;;;;;4981238;28;20117;-57
2023/06/22 08:18:12;;;;;;;11.90;8.80;;;25.20;98.70;;;;;;4980349;28;20508;-54
2023/06/22 08:20:37;;;;;;;8.43;7.05;;;25.30;98.90;;;;;;4981635;28;20259;-58
2023/06/22 08:23:06;;;;;;;8.25;6.82;;;25.50;98.60;;;;;;4985203;28;20042;-50
2023/06/22 08:25:34;;;;;;;8.38;6.22;;;25.60;98.30;;;;;;4983114;28;20050;-48
2023/06/22 08:28:00;;;;;;;9.75;6.22;;;25.80;97.70;;;;;;4979125;28;20046;-53
2023/06/22 08:30:26;;;;;;;7.82;6.40;;;25.80;97.70;;;;;;4985306;28;20169;-51
2023/06/22 08:32:52;;;;;;;9.88;6.60;;;25.90;97.50;;;;;;4985006;28;20546;-52
2023/06/22 08:35:17;;;;;;;7.55;5.35;;;26.00;97.30;;;;;;4982326;28;20034;-50
2023/06/22 08:37:45;;;;;;;7.25;5.70;;;26.00;97.20;;;;;;4968338;28;20062;-51
2023/06/22 08:40:11;;;;;;;7.38;5.75;;;26.00;96.90;;;;;;4964310;28;20126;-52
2023/06/22 08:42:37;;;;;;;7.80;5.35;;;26.00;96.70;;;;;;4979228;28;20532;-57
2023/06/22 08:45:03;;;;;;;6.68;4.72;;;25.90;96.70;;;;;;4984031;28;20234;-56
2023/06/22 08:47:29;;;;;;;8.32;5.05;;;26.00;96.60;;;;;;4985017;28;20046;-56
2023/06/22 08:49:56;;;;;;;7.75;5.38;;;26.10;96.60;;;;;;4984383;28;20053;-57
2023/06/22 08:52:23;;;;;;;6.63;4.93;;;26.30;96.70;;;;;;4983963;28;20057;-57
2023/06/22 08:54:48;;;;;;;9.48;5.05;;;26.50;96.50;;;;;;4984933;28;20093;-58
2023/06/22 08:57:14;;;;;;;7.70;5.80;;;26.60;96.70;;;;;;4983569;28;20535;-55
2023/06/22 08:59:40;;;;;;;7.82;5.90;;;26.80;96.60;;;;;;4983488;28;20094;-56
2023/06/22 09:02:06;;;;;;;8.48;5.47;;;27.00;96.40;;;;;;4984601;28;20074;-57
2023/06/22 09:04:34;;;;;;;8.50;5.78;;;27.00;95.90;;;;;;4984295;28;20053;-58
2023/06/22 09:07:01;;;;;;;7.82;5.65;;;27.10;96.00;;;;;;4983642;28;20051;-56
2023/06/22 09:09:26;;;;;;;8.98;5.85;;;27.10;95.80;;;;;;4984617;28;20053;-55
2023/06/22 09:11:52;;;;;;;7.72;5.28;;;27.10;95.40;;;;;;4983443;28;20058;-57
2023/06/22 09:14:18;;;;;;;6.95;5.80;;;27.10;95.60;;;;;;4984460;28;20042;-58
2023/06/22 09:16:43;;;;;;;7.82;5.75;;;27.20;95.50;;;;;;4983811;28;20300;-56
2023/06/22 09:19:09;;;;;;;8.05;6.10;;;27.30;95.30;;;;;;4984221;28;20042;-54
2023/06/22 09:21:34;;;;;;;8.75;5.95;;;27.30;95.30;;;;;;4984081;28;20043;-56
2023/06/22 09:24:00;;;;;;;7.13;5.65;;;27.30;95.10;;;;;;4982343;28;20051;-54
2023/06/22 09:26:26;;;;;;;7.93;5.75;;;27.20;95.10;;;;;;4983472;28;20406;-55
2023/06/22 09:28:51;;;;;;;9.80;6.40;;;27.30;95.00;;;;;;4984283;28;20461;-53
2023/06/22 09:31:17;;;;;;;8.80;6.13;;;27.50;95.10;;;;;;4981466;28;20043;-51
2023/06/22 09:33:43;;;;;;;8.38;6.45;;;27.80;94.80;;;;;;4978950;28;20096;-54
2023/06/22 09:36:08;;;;;;;9.35;5.68;;;28.00;94.70;;;;;;4974671;28;20034;-51
2023/06/22 09:38:40;;;;;;;5.80;4.88;;;28.10;94.60;;;;;;4984730;28;20512;-52
2023/06/22 09:41:05;;;;;;;6.88;4.93;;;28.20;94.40;;;;;;4978783;28;20118;-60
2023/06/22 09:43:34;;;;;;;8.52;6.30;;;28.30;94.30;;;;;;4981747;28;20088;-56
2023/06/22 09:46:01;;;;;;;7.43;5.43;;;28.20;93.90;;;;;;4964408;28;20060;-60
2023/06/22 09:48:27;;;;;;;8.23;5.30;;;28.20;93.90;;;;;;4963579;28;20074;-60
2023/06/22 09:50:52;;;;;;;9.25;6.28;;;28.20;94.20;;;;;;4962623;28;20078;-55
2023/06/22 09:53:18;;;;;;;16.45;6.07;;;28.10;93.50;;;;;;4964192;28;20039;-58
2023/06/22 09:55:44;;;;;;;10.15;6.22;;;28.10;94.10;;;;;;4963293;28;20082;-56
2023/06/22 09:58:10;;;;;;;7.00;5.38;;;28.30;94.10;;;;;;4975801;28;20065;-57
2023/06/22 10:00:35;;;;;;;10.63;6.20;;;28.60;94.00;;;;;;4983484;28;20117;-58
2023/06/22 10:03:01;;;;;;;8.38;5.95;;;28.70;93.60;;;;;;4982444;28;20454;-53
2023/06/22 10:05:26;;;;;;;6.93;5.03;;;28.70;93.60;;;;;;4982053;28;20084;-53
2023/06/22 10:07:52;;;;;;;8.10;6.50;;;28.90;93.60;;;;;;4983544;28;20034;-51
2023/06/22 10:10:18;;;;;;;7.35;5.75;;;29.00;93.20;;;;;;4982380;28;20054;-54
2023/06/22 10:12:48;;;;;;;10.13;5.75;;;28.70;93.10;;;;;;4983362;28;20070;-52
2023/06/22 10:15:14;;;;;;;8.23;5.65;;;28.70;93.10;;;;;;4983224;28;20052;-57
2023/06/22 10:17:40;;;;;;;9.00;5.97;;;28.90;93.40;;;;;;4983049;28;20656;-57
2023/06/22 10:20:12;;;;;;;8.55;6.20;;;28.90;93.10;;;;;;4982976;28;20278;-54
2023/06/22 10:22:43;;;;;;;10.80;6.68;;;29.00;93.10;;;;;;4965041;28;20054;-56
2023/06/22 10:25:10;;;;;;;7.88;5.53;;;29.00;93.00;;;;;;4983440;28;20056;-53
2023/06/22 10:27:36;;;;;;;12.40;5.65;;;29.10;93.30;;;;;;4982449;28;20421;-56
2023/06/22 10:30:02;;;;;;;7.43;5.25;;;29.10;93.10;;;;;;4969727;28;20038;-58
2023/06/22 10:32:28;;;;;;;8.48;6.35;;;29.20;93.20;;;;;;4963441;28;20559;-57
2023/06/22 10:34:54;;;;;;;8.57;5.70;;;29.30;93.00;;;;;;4963054;28;20216;-54
2023/06/22 10:37:20;;;;;;;7.50;6.25;;;29.30;92.40;;;;;;4973332;28;20038;-60
2023/06/22 10:39:45;;;;;;;7.03;5.32;;;29.30;92.50;;;;;;4963437;28;20545;-56
2023/06/22 10:42:12;;;;;;;9.18;6.78;;;29.10;92.90;;;;;;4962722;28;20613;-60
2023/06/22 10:44:40;;;;;;;8.15;5.90;;;29.00;92.40;;;;;;4970368;28;20050;-47
2023/06/22 10:47:06;;;;;;;7.78;5.90;;;28.80;92.40;;;;;;4986110;28;20034;-60
2023/06/22 10:49:32;;;;;;;6.82;5.50;;;28.90;93.00;;;;;;4980097;28;20042;-60
2023/06/22 10:51:57;;;;;;;7.68;5.45;;;29.10;92.90;;;;;;4966178;28;20413;-47
2023/06/22 10:54:23;;;;;;;8.48;6.25;;;29.30;92.50;;;;;;4969643;28;20449;-59
2023/06/22 10:56:49;;;;;;;6.88;5.65;;;29.10;92.30;;;;;;4975912;28;20126;-53
2023/06/22 10:59:14;;;;;;;7.07;6.00;;;29.10;92.60;;;;;;4981253;28;20042;-57
2023/06/22 11:01:40;;;;;;;7.82;5.45;;;29.30;92.60;;;;;;4984486;28;20064;-47
2023/06/22 11:04:06;;;;;;;6.72;5.38;;;29.30;92.80;;;;;;4965797;28;20493;-57
2023/06/22 11:06:31;;;;;;;7.05;5.78;;;29.40;92.90;;;;;;4965856;28;20058;-57
2023/06/22 11:08:58;;;;;;;7.82;5.43;;;29.60;92.90;;;;;;4978189;28;20065;-57
2023/06/22 11:11:25;;;;;;;8.35;5.82;;;29.70;92.70;;;;;;4969329;28;20050;-46
2023/06/22 11:13:50;;;;;;;9.18;5.60;;;29.70;92.70;;;;;;4973722;28;20053;-52
2023/06/22 11:16:16;;;;;;;8.25;6.05;;;29.60;92.70;;;;;;4978436;28;20501;-53
2023/06/22 11:18:42;;;;;;;11.35;7.00;;;29.50;93.10;;;;;;4973483;28;20061;-54
2023/06/22 11:21:07;;;;;;;13.13;6.70;;;29.60;91.80;;;;;;4982180;28;20950;-49
2023/06/22 11:23:33;;;;;;;8.60;5.88;;;29.50;92.20;;;;;;4982258;28;20073;-52
2023/06/22 11:25:58;;;;;;;7.85;5.82;;;29.60;92.50;;;;;;4981155;28;20125;-52
2023/06/22 11:28:24;;;;;;;8.40;6.15;;;29.80;92.80;;;;;;4981138;28;20142;-56
2023/06/22 11:30:50;;;;;;;8.25;6.05;;;29.80;92.70;;;;;;4981789;28;20038;-51
2023/06/22 11:33:15;;;;;;;9.35;6.82;;;29.80;92.70;;;;;;4981582;28;20084;-51
2023/06/22 11:35:41;;;;;;;10.25;8.13;;;29.70;92.80;;;;;;4981368;28;20084;-56
2023/06/22 11:38:07;;;;;;;10.20;6.97;;;29.50;92.60;;;;;;4982215;28;20034;-54
2023/06/22 11:40:33;;;;;;;9.73;7.43;;;29.40;92.70;;;;;;4981094;28;20061;-60
2023/06/22 11:42:58;;;;;;;10.10;6.85;;;29.20;92.70;;;;;;4980438;28;20038;-60
2023/06/22 11:45:24;;;;;;;9.98;6.65;;;29.00;92.90;;;;;;4980903;28;20561;-58
2023/06/22 11:47:50;;;;;;;9.55;6.90;;;28.90;93.10;;;;;;4981690;28;20681;-59
2023/06/22 11:50:15;;;;;;;9.73;7.40;;;28.90;93.20;;;;;;4981531;28;20111;-58
2023/06/22 11:52:41;;;;;;;10.50;7.10;;;28.90;93.10;;;;;;4980712;28;20042;-54
2023/06/22 11:55:07;;;;;;;8.77;6.78;;;28.90;93.10;;;;;;4981604;28;20046;-48
2023/06/22 11:57:35;;;;;;;10.52;6.60;;;28.90;93.10;;;;;;4985082;28;20040;-57
2023/06/22 12:00:00;;;;;;;10.15;7.13;;;29.00;93.10;;;;;;4985719;28;20042;-58
2023/06/22 12:02:26;;;;;;;7.07;6.15;;;29.20;93.00;;;;;;4984782;28;20057;-54
2023/06/22 12:04:52;;;;;;;7.82;6.05;;;29.30;92.90;;;;;;4985028;28;20493;-58
2023/06/22 12:07:18;;;;;;;9.10;6.90;;;29.40;92.90;;;;;;4985390;28;20085;-49
2023/06/22 12:09:44;;;;;;;9.27;6.00;;;29.50;93.00;;;;;;4984721;28;20088;-58
2023/06/22 12:12:10;;;;;;;8.30;6.45;;;29.50;92.90;;;;;;4985041;28;20038;-58
2023/06/22 12:14:35;;;;;;;8.77;7.28;;;29.40;92.80;;;;;;4985552;28;20082;-57
2023/06/22 12:17:01;;;;;;;11.45;7.70;;;29.40;92.70;;;;;;4985321;28;20109;-57
2023/06/22 12:19:27;;;;;;;8.10;6.30;;;29.40;92.80;;;;;;4984509;28;20522;-61
2023/06/22 12:21:52;;;;;;;8.65;6.13;;;29.40;92.70;;;;;;4985346;28;20038;-58
2023/06/22 12:24:18;;;;;;;7.75;6.47;;;29.30;92.60;;;;;;4985186;28;20133;-55
2023/06/22 12:26:44;;;;;;;9.98;6.93;;;29.30;92.70;;;;;;4983795;28;20050;-56
2023/06/22 12:29:09;;;;;;;8.48;6.47;;;29.30;92.60;;;;;;4985299;28;20058;-50
2023/06/22 12:31:38;;;;;;;6.78;6.07;;;29.10;92.70;;;;;;4984825;28;20050;-56